sensor_id;sensor_type;location;lat;lon;timestamp;temperature;humidity
12568;DHT22;6349;50.904;6.136;2023-05-07T00:01:47;13.70;99.90
12568;DHT22;6349;50.904;6.136;2023-05-07T00:03:49;13.60;99.90
12568;DHT22;6349;50.904;6.136;2023-05-07T00:05:50;13.60;99.90
12568;DHT22;6349;50.904;6.136;2023-05-07T00:07:54;13.60;99.90
12568;DHT22;6349;50.904;6.136;2023-05-07T00:09:56;13.70;99.90
12568;DHT22;6349;50.904;6.136;2023-05-07T00:11:58;13.60;99.90
12568;DHT22;6349;50.904;6.136;2023-05-07T00:13:59;13.60;99.90
12568;DHT22;6349;50.904;6.136;2023-05-07T00:16:02;13.60;99.90
12568;DHT22;6349;50.904;6.136;2023-05-07T00:18:04;13.60;99.90
12568;DHT22;6349;50.904;6.136;2023-05-07T00:20:06;13.60;99.90
12568;DHT22;6349;50.904;6.136;2023-05-07T00:22:08;13.60;99.90
12568;DHT22;6349;50.904;6.136;2023-05-07T00:24:11;13.60;99.90
12568;DHT22;6349;50.904;6.136;2023-05-07T00:26:12;13.60;99.90
12568;DHT22;6349;50.904;6.136;2023-05-07T00:28:14;13.60;99.90
12568;DHT22;6349;50.904;6.136;2023-05-07T00:30:16;13.70;99.90
12568;DHT22;6349;50.904;6.136;2023-05-07T00:32:19;13.70;99.90
12568;DHT22;6349;50.904;6.136;2023-05-07T00:34:21;13.70;99.90
12568;DHT22;6349;50.904;6.136;2023-05-07T00:36:22;13.70;99.90
12568;DHT22;6349;50.904;6.136;2023-05-07T00:38:24;13.70;99.90
12568;DHT22;6349;50.904;6.136;2023-05-07T00:40:27;13.70;99.90
12568;DHT22;6349;50.904;6.136;2023-05-07T00:42:29;13.70;99.90
12568;DHT22;6349;50.904;6.136;2023-05-07T00:44:31;13.70;99.90
12568;DHT22;6349;50.904;6.136;2023-05-07T00:46:32;13.70;99.90
12568;DHT22;6349;50.904;6.136;2023-05-07T00:48:34;13.70;99.90
12568;DHT22;6349;50.904;6.136;2023-05-07T00:50:36;13.70;99.90
12568;DHT22;6349;50.904;6.136;2023-05-07T00:52:38;13.70;99.90
12568;DHT22;6349;50.904;6.136;2023-05-07T00:54:40;13.70;99.90
12568;DHT22;6349;50.904;6.136;2023-05-07T00:56:42;13.70;99.90
12568;DHT22;6349;50.904;6.136;2023-05-07T00:58:44;13.70;99.90
12568;DHT22;6349;50.904;6.136;2023-05-07T01:00:46;13.70;99.90
12568;DHT22;6349;50.904;6.136;2023-05-07T01:02:49;13.70;99.90
12568;DHT22;6349;50.904;6.136;2023-05-07T01:04:51;13.70;99.90
12568;DHT22;6349;50.904;6.136;2023-05-07T01:06:54;13.80;99.90
12568;DHT22;6349;50.904;6.136;2023-05-07T01:08:57;13.80;99.90
12568;DHT22;6349;50.904;6.136;2023-05-07T01:11:00;13.80;99.90
12568;DHT22;6349;50.904;6.136;2023-05-07T01:13:02;13.80;99.90
12568;DHT22;6349;50.904;6.136;2023-05-07T01:15:06;13.80;99.90
12568;DHT22;6349;50.904;6.136;2023-05-07T01:17:09;13.80;99.90
12568;DHT22;6349;50.904;6.136;2023-05-07T01:19:12;13.80;99.90
12568;DHT22;6349;50.904;6.136;2023-05-07T01:21:18;13.80;99.90
12568;DHT22;6349;50.904;6.136;2023-05-07T01:23:20;13.80;99.90
12568;DHT22;6349;50.904;6.136;2023-05-07T01:25:22;13.80;99.90
12568;DHT22;6349;50.904;6.136;2023-05-07T01:27:24;13.80;99.90
12568;DHT22;6349;50.904;6.136;2023-05-07T01:29:25;13.70;99.90
12568;DHT22;6349;50.904;6.136;2023-05-07T01:31:27;13.70;99.90
12568;DHT22;6349;50.904;6.136;2023-05-07T01:33:33;13.70;99.90
12568;DHT22;6349;50.904;6.136;2023-05-07T01:35:41;13.70;99.90
12568;DHT22;6349;50.904;6.136;2023-05-07T01:37:48;13.70;99.90
12568;DHT22;6349;50.904;6.136;2023-05-07T01:39:51;13.70;99.90
12568;DHT22;6349;50.904;6.136;2023-05-07T01:41:55;13.70;99.90
12568;DHT22;6349;50.904;6.136;2023-05-07T01:43:58;13.70;99.90
12568;DHT22;6349;50.904;6.136;2023-05-07T01:46:01;13.70;99.90
12568;DHT22;6349;50.904;6.136;2023-05-07T01:48:04;13.70;99.90
12568;DHT22;6349;50.904;6.136;2023-05-07T01:50:09;13.70;99.90
12568;DHT22;6349;50.904;6.136;2023-05-07T01:52:11;13.70;99.90
12568;DHT22;6349;50.904;6.136;2023-05-07T01:54:13;13.60;99.90
12568;DHT22;6349;50.904;6.136;2023-05-07T01:56:17;13.60;99.90
12568;DHT22;6349;50.904;6.136;2023-05-07T01:58:19;13.60;99.90
12568;DHT22;6349;50.904;6.136;2023-05-07T02:00:21;13.50;99.90
12568;DHT22;6349;50.904;6.136;2023-05-07T02:02:23;13.50;99.90
12568;DHT22;6349;50.904;6.136;2023-05-07T02:04:25;13.50;99.90
12568;DHT22;6349;50.904;6.136;2023-05-07T02:06:26;13.50;99.90
12568;DHT22;6349;50.904;6.136;2023-05-07T02:08:28;13.50;99.90
12568;DHT22;6349;50.904;6.136;2023-05-07T02:10:30;13.50;99.90
12568;DHT22;6349;50.904;6.136;2023-05-07T02:12:32;13.40;99.90
12568;DHT22;6349;50.904;6.136;2023-05-07T02:14:34;13.40;99.90
12568;DHT22;6349;50.904;6.136;2023-05-07T02:16:36;13.40;99.90
12568;DHT22;6349;50.904;6.136;2023-05-07T02:18:38;13.40;99.90
12568;DHT22;6349;50.904;6.136;2023-05-07T02:20:40;13.40;99.90
12568;DHT22;6349;50.904;6.136;2023-05-07T02:22:49;13.30;99.90
12568;DHT22;6349;50.904;6.136;2023-05-07T02:24:51;13.30;99.90
12568;DHT22;6349;50.904;6.136;2023-05-07T02:26:53;13.30;99.90
12568;DHT22;6349;50.904;6.136;2023-05-07T02:28:55;13.30;99.90
12568;DHT22;6349;50.904;6.136;2023-05-07T02:30:57;13.20;99.90
12568;DHT22;6349;50.904;6.136;2023-05-07T02:33:01;13.20;99.90
12568;DHT22;6349;50.904;6.136;2023-05-07T02:35:03;13.20;99.90
12568;DHT22;6349;50.904;6.136;2023-05-07T02:37:05;13.20;99.90
12568;DHT22;6349;50.904;6.136;2023-05-07T02:39:07;13.10;99.90
12568;DHT22;6349;50.904;6.136;2023-05-07T02:41:09;13.20;99.90
12568;DHT22;6349;50.904;6.136;2023-05-07T02:43:11;13.20;99.90
12568;DHT22;6349;50.904;6.136;2023-05-07T02:45:13;13.10;99.90
12568;DHT22;6349;50.904;6.136;2023-05-07T02:47:16;13.10;99.90
12568;DHT22;6349;50.904;6.136;2023-05-07T02:49:19;13.10;99.90
12568;DHT22;6349;50.904;6.136;2023-05-07T02:51:22;13.10;99.90
12568;DHT22;6349;50.904;6.136;2023-05-07T02:53:24;13.10;99.90
12568;DHT22;6349;50.904;6.136;2023-05-07T02:55:29;13.10;99.90
12568;DHT22;6349;50.904;6.136;2023-05-07T02:57:30;13.10;99.90
12568;DHT22;6349;50.904;6.136;2023-05-07T02:59:32;13.10;99.90
12568;DHT22;6349;50.904;6.136;2023-05-07T03:01:34;13.10;99.90
12568;DHT22;6349;50.904;6.136;2023-05-07T03:03:36;13.10;99.90
12568;DHT22;6349;50.904;6.136;2023-05-07T03:05:38;13.10;99.90
12568;DHT22;6349;50.904;6.136;2023-05-07T03:07:39;13.10;99.90
12568;DHT22;6349;50.904;6.136;2023-05-07T03:09:41;13.10;99.90
12568;DHT22;6349;50.904;6.136;2023-05-07T03:11:43;13.10;99.90
12568;DHT22;6349;50.904;6.136;2023-05-07T03:13:44;13.20;99.90
12568;DHT22;6349;50.904;6.136;2023-05-07T03:15:46;13.20;99.90
12568;DHT22;6349;50.904;6.136;2023-05-07T03:17:48;13.10;99.90
12568;DHT22;6349;50.904;6.136;2023-05-07T03:19:50;13.10;99.90
12568;DHT22;6349;50.904;6.136;2023-05-07T03:21:51;13.20;99.90
12568;DHT22;6349;50.904;6.136;2023-05-07T03:23:53;13.20;99.90
12568;DHT22;6349;50.904;6.136;2023-05-07T03:25:55;13.20;99.90
12568;DHT22;6349;50.904;6.136;2023-05-07T03:27:56;13.20;99.90
12568;DHT22;6349;50.904;6.136;2023-05-07T03:29:59;13.20;99.90
12568;DHT22;6349;50.904;6.136;2023-05-07T03:32:01;13.20;99.90
12568;DHT22;6349;50.904;6.136;2023-05-07T03:34:03;13.20;99.90
12568;DHT22;6349;50.904;6.136;2023-05-07T03:36:06;13.20;99.90
12568;DHT22;6349;50.904;6.136;2023-05-07T03:38:08;13.20;99.90
12568;DHT22;6349;50.904;6.136;2023-05-07T03:40:10;13.20;99.90
12568;DHT22;6349;50.904;6.136;2023-05-07T03:42:14;13.20;99.90
12568;DHT22;6349;50.904;6.136;2023-05-07T03:44:16;13.20;99.90
12568;DHT22;6349;50.904;6.136;2023-05-07T03:46:18;13.20;99.90
12568;DHT22;6349;50.904;6.136;2023-05-07T03:48:20;13.20;99.90
12568;DHT22;6349;50.904;6.136;2023-05-07T03:50:22;13.20;99.90
12568;DHT22;6349;50.904;6.136;2023-05-07T03:52:24;13.20;99.90
12568;DHT22;6349;50.904;6.136;2023-05-07T03:54:27;13.20;99.90
12568;DHT22;6349;50.904;6.136;2023-05-07T03:56:29;13.20;99.90
12568;DHT22;6349;50.904;6.136;2023-05-07T03:58:32;13.20;99.90
12568;DHT22;6349;50.904;6.136;2023-05-07T04:00:33;13.20;99.90
12568;DHT22;6349;50.904;6.136;2023-05-07T04:02:39;13.20;99.90
12568;DHT22;6349;50.904;6.136;2023-05-07T04:04:42;13.20;99.90
12568;DHT22;6349;50.904;6.136;2023-05-07T04:06:43;13.10;99.90
12568;DHT22;6349;50.904;6.136;2023-05-07T04:08:45;13.10;99.90
12568;DHT22;6349;50.904;6.136;2023-05-07T04:10:47;13.10;99.90
12568;DHT22;6349;50.904;6.136;2023-05-07T04:12:49;13.10;99.90
12568;DHT22;6349;50.904;6.136;2023-05-07T04:14:51;13.10;99.90
12568;DHT22;6349;50.904;6.136;2023-05-07T04:16:52;13.10;99.90
12568;DHT22;6349;50.904;6.136;2023-05-07T04:18:53;13.10;99.90
12568;DHT22;6349;50.904;6.136;2023-05-07T04:20:55;13.10;99.90
12568;DHT22;6349;50.904;6.136;2023-05-07T04:22:57;13.10;99.90
12568;DHT22;6349;50.904;6.136;2023-05-07T04:24:58;13.10;99.90
12568;DHT22;6349;50.904;6.136;2023-05-07T04:27:00;13.10;99.90
12568;DHT22;6349;50.904;6.136;2023-05-07T04:29:02;13.10;99.90
12568;DHT22;6349;50.904;6.136;2023-05-07T04:31:04;13.10;99.90
12568;DHT22;6349;50.904;6.136;2023-05-07T04:33:05;13.00;99.90
12568;DHT22;6349;50.904;6.136;2023-05-07T04:35:08;13.00;99.90
12568;DHT22;6349;50.904;6.136;2023-05-07T04:37:10;13.10;99.90
12568;DHT22;6349;50.904;6.136;2023-05-07T04:39:12;13.00;99.90
12568;DHT22;6349;50.904;6.136;2023-05-07T04:41:14;13.00;99.90
12568;DHT22;6349;50.904;6.136;2023-05-07T04:43:16;13.00;99.90
12568;DHT22;6349;50.904;6.136;2023-05-07T04:45:18;13.00;99.90
12568;DHT22;6349;50.904;6.136;2023-05-07T04:47:20;13.00;99.90
12568;DHT22;6349;50.904;6.136;2023-05-07T04:49:22;13.00;99.90
12568;DHT22;6349;50.904;6.136;2023-05-07T04:51:23;13.00;99.90
12568;DHT22;6349;50.904;6.136;2023-05-07T04:53:25;13.00;99.90
12568;DHT22;6349;50.904;6.136;2023-05-07T04:55:27;13.00;99.90
12568;DHT22;6349;50.904;6.136;2023-05-07T04:57:29;13.00;99.90
12568;DHT22;6349;50.904;6.136;2023-05-07T04:59:32;13.10;99.90
12568;DHT22;6349;50.904;6.136;2023-05-07T05:01:34;13.10;99.90
12568;DHT22;6349;50.904;6.136;2023-05-07T05:03:36;13.10;99.90
12568;DHT22;6349;50.904;6.136;2023-05-07T05:05:38;13.10;99.90
12568;DHT22;6349;50.904;6.136;2023-05-07T05:07:40;13.10;99.90
12568;DHT22;6349;50.904;6.136;2023-05-07T05:09:42;13.10;99.90
12568;DHT22;6349;50.904;6.136;2023-05-07T05:11:44;13.10;99.90
12568;DHT22;6349;50.904;6.136;2023-05-07T05:13:45;13.10;99.90
12568;DHT22;6349;50.904;6.136;2023-05-07T05:15:50;13.10;99.90
12568;DHT22;6349;50.904;6.136;2023-05-07T05:17:51;13.10;99.90
12568;DHT22;6349;50.904;6.136;2023-05-07T05:19:52;13.10;99.90
12568;DHT22;6349;50.904;6.136;2023-05-07T05:21:53;13.20;99.90
12568;DHT22;6349;50.904;6.136;2023-05-07T05:23:55;13.20;99.90
12568;DHT22;6349;50.904;6.136;2023-05-07T05:25:58;13.20;99.90
12568;DHT22;6349;50.904;6.136;2023-05-07T05:27:59;13.30;99.90
12568;DHT22;6349;50.904;6.136;2023-05-07T05:30:01;13.30;99.90
12568;DHT22;6349;50.904;6.136;2023-05-07T05:32:03;13.40;99.90
12568;DHT22;6349;50.904;6.136;2023-05-07T05:34:05;13.40;99.90
12568;DHT22;6349;50.904;6.136;2023-05-07T05:36:10;13.50;99.90
12568;DHT22;6349;50.904;6.136;2023-05-07T05:38:13;13.50;99.90
12568;DHT22;6349;50.904;6.136;2023-05-07T05:40:15;13.50;99.90
12568;DHT22;6349;50.904;6.136;2023-05-07T05:42:17;13.60;99.90
12568;DHT22;6349;50.904;6.136;2023-05-07T05:44:19;13.60;99.90
12568;DHT22;6349;50.904;6.136;2023-05-07T05:46:21;13.70;99.90
12568;DHT22;6349;50.904;6.136;2023-05-07T05:48:23;13.80;99.90
12568;DHT22;6349;50.904;6.136;2023-05-07T05:50:25;13.80;99.90
12568;DHT22;6349;50.904;6.136;2023-05-07T05:52:27;13.80;99.90
12568;DHT22;6349;50.904;6.136;2023-05-07T05:54:29;13.90;99.90
12568;DHT22;6349;50.904;6.136;2023-05-07T05:56:30;14.10;99.90
12568;DHT22;6349;50.904;6.136;2023-05-07T05:58:32;14.00;99.90
12568;DHT22;6349;50.904;6.136;2023-05-07T06:00:34;14.10;99.90
12568;DHT22;6349;50.904;6.136;2023-05-07T06:02:36;14.10;99.90
12568;DHT22;6349;50.904;6.136;2023-05-07T06:04:36;14.20;99.90
12568;DHT22;6349;50.904;6.136;2023-05-07T06:06:38;14.20;99.90
12568;DHT22;6349;50.904;6.136;2023-05-07T06:08:40;14.30;99.90
12568;DHT22;6349;50.904;6.136;2023-05-07T06:10:41;14.40;99.90
12568;DHT22;6349;50.904;6.136;2023-05-07T06:12:44;14.40;99.90
12568;DHT22;6349;50.904;6.136;2023-05-07T06:14:46;14.40;99.90
12568;DHT22;6349;50.904;6.136;2023-05-07T06:16:48;14.40;99.90
12568;DHT22;6349;50.904;6.136;2023-05-07T06:18:50;14.50;99.90
12568;DHT22;6349;50.904;6.136;2023-05-07T06:20:52;14.50;99.90
12568;DHT22;6349;50.904;6.136;2023-05-07T06:22:53;14.50;99.90
12568;DHT22;6349;50.904;6.136;2023-05-07T06:24:54;14.60;99.90
12568;DHT22;6349;50.904;6.136;2023-05-07T06:26:56;14.60;99.90
12568;DHT22;6349;50.904;6.136;2023-05-07T06:28:59;14.60;99.90
12568;DHT22;6349;50.904;6.136;2023-05-07T06:31:11;14.70;99.90
12568;DHT22;6349;50.904;6.136;2023-05-07T06:33:13;14.70;99.90
12568;DHT22;6349;50.904;6.136;2023-05-07T06:35:15;14.80;99.90
12568;DHT22;6349;50.904;6.136;2023-05-07T06:37:17;14.80;99.90
12568;DHT22;6349;50.904;6.136;2023-05-07T06:39:19;14.80;99.90
12568;DHT22;6349;50.904;6.136;2023-05-07T06:41:21;14.90;99.90
12568;DHT22;6349;50.904;6.136;2023-05-07T06:43:23;14.90;99.90
12568;DHT22;6349;50.904;6.136;2023-05-07T06:45:25;14.90;99.90
12568;DHT22;6349;50.904;6.136;2023-05-07T06:47:26;15.00;99.90
12568;DHT22;6349;50.904;6.136;2023-05-07T06:49:28;15.00;99.90
12568;DHT22;6349;50.904;6.136;2023-05-07T06:51:30;15.00;99.90
12568;DHT22;6349;50.904;6.136;2023-05-07T06:53:32;15.10;99.90
12568;DHT22;6349;50.904;6.136;2023-05-07T06:55:34;15.20;99.90
12568;DHT22;6349;50.904;6.136;2023-05-07T06:57:35;15.20;99.90
12568;DHT22;6349;50.904;6.136;2023-05-07T06:59:37;15.30;99.90
12568;DHT22;6349;50.904;6.136;2023-05-07T07:01:40;15.30;99.90
12568;DHT22;6349;50.904;6.136;2023-05-07T07:03:42;15.30;99.90
12568;DHT22;6349;50.904;6.136;2023-05-07T07:05:44;15.30;99.90
12568;DHT22;6349;50.904;6.136;2023-05-07T07:07:46;15.30;99.90
12568;DHT22;6349;50.904;6.136;2023-05-07T07:09:54;15.40;99.90
12568;DHT22;6349;50.904;6.136;2023-05-07T07:11:56;15.40;99.90
12568;DHT22;6349;50.904;6.136;2023-05-07T07:13:58;15.50;99.90
12568;DHT22;6349;50.904;6.136;2023-05-07T07:16:00;15.50;99.90
12568;DHT22;6349;50.904;6.136;2023-05-07T07:18:02;15.60;99.90
12568;DHT22;6349;50.904;6.136;2023-05-07T07:20:05;15.60;99.90
12568;DHT22;6349;50.904;6.136;2023-05-07T07:22:07;15.70;99.90
12568;DHT22;6349;50.904;6.136;2023-05-07T07:24:09;15.80;99.90
12568;DHT22;6349;50.904;6.136;2023-05-07T07:26:11;15.80;99.90
12568;DHT22;6349;50.904;6.136;2023-05-07T07:28:13;15.90;99.90
12568;DHT22;6349;50.904;6.136;2023-05-07T07:30:15;15.90;99.90
12568;DHT22;6349;50.904;6.136;2023-05-07T07:32:16;16.00;99.90
12568;DHT22;6349;50.904;6.136;2023-05-07T07:34:18;16.10;99.90
12568;DHT22;6349;50.904;6.136;2023-05-07T07:36:20;16.20;99.90
12568;DHT22;6349;50.904;6.136;2023-05-07T07:38:22;16.20;99.90
12568;DHT22;6349;50.904;6.136;2023-05-07T07:40:24;16.30;99.90
12568;DHT22;6349;50.904;6.136;2023-05-07T07:42:26;16.30;99.90
12568;DHT22;6349;50.904;6.136;2023-05-07T07:44:28;16.40;99.90
12568;DHT22;6349;50.904;6.136;2023-05-07T07:46:30;16.50;99.90
12568;DHT22;6349;50.904;6.136;2023-05-07T07:48:33;16.50;99.90
12568;DHT22;6349;50.904;6.136;2023-05-07T07:50:35;16.60;99.90
12568;DHT22;6349;50.904;6.136;2023-05-07T07:52:37;16.60;99.90
12568;DHT22;6349;50.904;6.136;2023-05-07T07:54:39;16.70;99.90
12568;DHT22;6349;50.904;6.136;2023-05-07T07:56:41;16.70;99.90
12568;DHT22;6349;50.904;6.136;2023-05-07T07:58:43;16.80;99.90
12568;DHT22;6349;50.904;6.136;2023-05-07T08:00:45;16.80;99.90
12568;DHT22;6349;50.904;6.136;2023-05-07T08:02:47;16.80;99.90
12568;DHT22;6349;50.904;6.136;2023-05-07T08:04:48;16.90;99.90
12568;DHT22;6349;50.904;6.136;2023-05-07T08:06:50;17.00;99.90
12568;DHT22;6349;50.904;6.136;2023-05-07T08:08:52;17.10;99.90
12568;DHT22;6349;50.904;6.136;2023-05-07T08:10:54;17.10;99.90
12568;DHT22;6349;50.904;6.136;2023-05-07T08:12:55;17.10;99.90
12568;DHT22;6349;50.904;6.136;2023-05-07T08:14:57;17.20;99.90
12568;DHT22;6349;50.904;6.136;2023-05-07T08:16:59;17.20;99.90
12568;DHT22;6349;50.904;6.136;2023-05-07T08:19:01;17.30;99.90
12568;DHT22;6349;50.904;6.136;2023-05-07T08:21:03;17.30;99.90
12568;DHT22;6349;50.904;6.136;2023-05-07T08:23:05;17.40;99.90
12568;DHT22;6349;50.904;6.136;2023-05-07T08:25:08;17.40;99.90
12568;DHT22;6349;50.904;6.136;2023-05-07T08:27:10;17.40;99.90
12568;DHT22;6349;50.904;6.136;2023-05-07T08:29:12;17.40;99.90
12568;DHT22;6349;50.904;6.136;2023-05-07T08:31:14;17.50;99.90
12568;DHT22;6349;50.904;6.136;2023-05-07T08:33:16;17.60;99.90
12568;DHT22;6349;50.904;6.136;2023-05-07T08:35:18;17.70;99.90
12568;DHT22;6349;50.904;6.136;2023-05-07T08:37:19;17.70;99.90
12568;DHT22;6349;50.904;6.136;2023-05-07T08:39:21;17.80;99.90
12568;DHT22;6349;50.904;6.136;2023-05-07T08:41:23;17.80;99.90
12568;DHT22;6349;50.904;6.136;2023-05-07T08:43:27;17.90;99.90
12568;DHT22;6349;50.904;6.136;2023-05-07T08:45:30;18.00;99.90
12568;DHT22;6349;50.904;6.136;2023-05-07T08:47:50;18.10;99.90
12568;DHT22;6349;50.904;6.136;2023-05-07T08:49:54;18.20;99.90
12568;DHT22;6349;50.904;6.136;2023-05-07T08:51:56;18.30;99.90
12568;DHT22;6349;50.904;6.136;2023-05-07T08:53:58;18.40;99.90
12568;DHT22;6349;50.904;6.136;2023-05-07T08:56:01;18.50;99.90
12568;DHT22;6349;50.904;6.136;2023-05-07T08:58:04;18.70;99.90
12568;DHT22;6349;50.904;6.136;2023-05-07T09:00:06;18.80;99.90
12568;DHT22;6349;50.904;6.136;2023-05-07T09:02:10;18.90;99.90
12568;DHT22;6349;50.904;6.136;2023-05-07T09:04:13;19.00;99.90
12568;DHT22;6349;50.904;6.136;2023-05-07T09:06:15;19.10;99.90
12568;DHT22;6349;50.904;6.136;2023-05-07T09:08:17;19.10;99.90
12568;DHT22;6349;50.904;6.136;2023-05-07T09:10:20;19.20;99.90
12568;DHT22;6349;50.904;6.136;2023-05-07T09:12:23;19.20;99.90
12568;DHT22;6349;50.904;6.136;2023-05-07T09:14:25;19.30;99.90
12568;DHT22;6349;50.904;6.136;2023-05-07T09:16:29;19.30;99.90
12568;DHT22;6349;50.904;6.136;2023-05-07T09:18:31;19.40;99.90
12568;DHT22;6349;50.904;6.136;2023-05-07T09:20:33;19.40;99.90
12568;DHT22;6349;50.904;6.136;2023-05-07T09:22:38;19.50;99.90
12568;DHT22;6349;50.904;6.136;2023-05-07T09:24:40;19.60;99.90
12568;DHT22;6349;50.904;6.136;2023-05-07T09:26:44;19.60;99.90
12568;DHT22;6349;50.904;6.136;2023-05-07T09:28:45;19.70;99.90
12568;DHT22;6349;50.904;6.136;2023-05-07T09:30:47;19.80;99.90
12568;DHT22;6349;50.904;6.136;2023-05-07T09:32:50;20.00;99.90
12568;DHT22;6349;50.904;6.136;2023-05-07T09:34:52;20.10;99.90
12568;DHT22;6349;50.904;6.136;2023-05-07T09:36:54;20.20;99.90
12568;DHT22;6349;50.904;6.136;2023-05-07T09:38:59;20.30;99.90
12568;DHT22;6349;50.904;6.136;2023-05-07T09:41:11;20.40;99.90
12568;DHT22;6349;50.904;6.136;2023-05-07T09:43:13;20.50;99.90
12568;DHT22;6349;50.904;6.136;2023-05-07T09:45:21;20.60;99.90
12568;DHT22;6349;50.904;6.136;2023-05-07T09:47:24;20.70;99.90
12568;DHT22;6349;50.904;6.136;2023-05-07T09:49:29;20.60;99.90
12568;DHT22;6349;50.904;6.136;2023-05-07T09:51:45;20.70;99.90
12568;DHT22;6349;50.904;6.136;2023-05-07T09:53:53;20.80;99.90
12568;DHT22;6349;50.904;6.136;2023-05-07T09:55:57;20.90;99.90
12568;DHT22;6349;50.904;6.136;2023-05-07T09:57:59;21.00;99.90
12568;DHT22;6349;50.904;6.136;2023-05-07T10:00:02;21.10;99.90
12568;DHT22;6349;50.904;6.136;2023-05-07T10:02:05;21.10;99.90
12568;DHT22;6349;50.904;6.136;2023-05-07T10:04:10;21.10;99.90
12568;DHT22;6349;50.904;6.136;2023-05-07T10:06:14;21.10;99.90
12568;DHT22;6349;50.904;6.136;2023-05-07T10:08:16;21.10;99.90
12568;DHT22;6349;50.904;6.136;2023-05-07T10:10:17;21.00;99.90
12568;DHT22;6349;50.904;6.136;2023-05-07T10:12:20;21.10;99.90
12568;DHT22;6349;50.904;6.136;2023-05-07T10:14:23;21.10;99.90
12568;DHT22;6349;50.904;6.136;2023-05-07T10:16:25;21.00;99.90
12568;DHT22;6349;50.904;6.136;2023-05-07T10:18:30;21.00;99.90
12568;DHT22;6349;50.904;6.136;2023-05-07T10:20:36;21.00;99.90
12568;DHT22;6349;50.904;6.136;2023-05-07T10:22:47;21.10;99.90
12568;DHT22;6349;50.904;6.136;2023-05-07T10:24:52;21.00;99.90
12568;DHT22;6349;50.904;6.136;2023-05-07T10:26:57;21.00;99.90
12568;DHT22;6349;50.904;6.136;2023-05-07T10:29:07;20.90;99.90
12568;DHT22;6349;50.904;6.136;2023-05-07T10:31:55;21.00;99.90
12568;DHT22;6349;50.904;6.136;2023-05-07T10:34:01;20.90;99.90
12568;DHT22;6349;50.904;6.136;2023-05-07T10:36:03;20.90;99.90
12568;DHT22;6349;50.904;6.136;2023-05-07T10:38:06;20.80;99.90
12568;DHT22;6349;50.904;6.136;2023-05-07T10:40:09;20.80;99.90
12568;DHT22;6349;50.904;6.136;2023-05-07T10:42:13;20.80;99.90
12568;DHT22;6349;50.904;6.136;2023-05-07T10:44:28;20.80;99.90
12568;DHT22;6349;50.904;6.136;2023-05-07T10:46:32;20.80;99.90
12568;DHT22;6349;50.904;6.136;2023-05-07T10:49:06;20.90;99.90
12568;DHT22;6349;50.904;6.136;2023-05-07T10:51:21;20.90;99.90
12568;DHT22;6349;50.904;6.136;2023-05-07T10:53:24;20.90;99.90
12568;DHT22;6349;50.904;6.136;2023-05-07T10:55:31;21.00;99.90
12568;DHT22;6349;50.904;6.136;2023-05-07T10:57:35;21.00;99.90
12568;DHT22;6349;50.904;6.136;2023-05-07T10:59:37;21.00;99.90
12568;DHT22;6349;50.904;6.136;2023-05-07T11:02:05;21.00;99.90
12568;DHT22;6349;50.904;6.136;2023-05-07T11:04:15;20.90;99.90
12568;DHT22;6349;50.904;6.136;2023-05-07T11:06:19;20.80;99.90
12568;DHT22;6349;50.904;6.136;2023-05-07T11:08:21;20.70;99.90
12568;DHT22;6349;50.904;6.136;2023-05-07T11:10:23;20.70;99.90
12568;DHT22;6349;50.904;6.136;2023-05-07T11:14:44;20.70;99.90
12568;DHT22;6349;50.904;6.136;2023-05-07T11:16:46;20.70;99.90
12568;DHT22;6349;50.904;6.136;2023-05-07T11:18:50;20.70;99.90
12568;DHT22;6349;50.904;6.136;2023-05-07T11:20:59;20.70;99.90
12568;DHT22;6349;50.904;6.136;2023-05-07T11:23:01;20.70;99.90
12568;DHT22;6349;50.904;6.136;2023-05-07T11:25:06;20.70;99.90
12568;DHT22;6349;50.904;6.136;2023-05-07T11:27:09;20.70;99.90
12568;DHT22;6349;50.904;6.136;2023-05-07T11:29:18;20.70;99.90
12568;DHT22;6349;50.904;6.136;2023-05-07T11:31:27;20.70;99.90
12568;DHT22;6349;50.904;6.136;2023-05-07T11:33:33;20.60;99.90
12568;DHT22;6349;50.904;6.136;2023-05-07T11:35:35;20.60;99.90
12568;DHT22;6349;50.904;6.136;2023-05-07T11:37:37;20.60;99.90
12568;DHT22;6349;50.904;6.136;2023-05-07T11:39:40;20.60;99.90
12568;DHT22;6349;50.904;6.136;2023-05-07T11:41:42;20.60;99.90
12568;DHT22;6349;50.904;6.136;2023-05-07T11:43:59;20.60;99.90
12568;DHT22;6349;50.904;6.136;2023-05-07T11:46:11;20.50;99.90
12568;DHT22;6349;50.904;6.136;2023-05-07T11:48:15;20.50;99.90
12568;DHT22;6349;50.904;6.136;2023-05-07T11:50:17;20.50;99.90
12568;DHT22;6349;50.904;6.136;2023-05-07T11:52:19;20.40;99.90
12568;DHT22;6349;50.904;6.136;2023-05-07T11:54:21;20.30;99.90
12568;DHT22;6349;50.904;6.136;2023-05-07T11:56:23;20.40;99.90
12568;DHT22;6349;50.904;6.136;2023-05-07T11:58:25;20.30;99.90
12568;DHT22;6349;50.904;6.136;2023-05-07T12:00:27;20.30;99.90
12568;DHT22;6349;50.904;6.136;2023-05-07T12:02:29;20.20;99.90
12568;DHT22;6349;50.904;6.136;2023-05-07T12:04:31;20.20;99.90
12568;DHT22;6349;50.904;6.136;2023-05-07T12:06:36;20.20;99.90
12568;DHT22;6349;50.904;6.136;2023-05-07T12:08:39;20.30;99.90
12568;DHT22;6349;50.904;6.136;2023-05-07T12:10:44;20.20;99.90
12568;DHT22;6349;50.904;6.136;2023-05-07T12:12:47;20.20;99.90
12568;DHT22;6349;50.904;6.136;2023-05-07T12:14:49;20.20;99.90
12568;DHT22;6349;50.904;6.136;2023-05-07T12:16:51;20.30;99.90
12568;DHT22;6349;50.904;6.136;2023-05-07T12:18:53;20.10;99.90
12568;DHT22;6349;50.904;6.136;2023-05-07T12:20:58;20.10;99.90
12568;DHT22;6349;50.904;6.136;2023-05-07T12:23:01;20.00;99.90
12568;DHT22;6349;50.904;6.136;2023-05-07T12:25:03;20.00;99.90
12568;DHT22;6349;50.904;6.136;2023-05-07T12:27:05;19.90;99.90
12568;DHT22;6349;50.904;6.136;2023-05-07T12:29:07;19.80;99.90
12568;DHT22;6349;50.904;6.136;2023-05-07T12:31:10;19.80;99.90
12568;DHT22;6349;50.904;6.136;2023-05-07T12:33:16;19.80;99.90
12568;DHT22;6349;50.904;6.136;2023-05-07T12:35:29;19.70;99.90
12568;DHT22;6349;50.904;6.136;2023-05-07T12:37:31;19.70;99.90
12568;DHT22;6349;50.904;6.136;2023-05-07T12:39:33;19.60;99.90
12568;DHT22;6349;50.904;6.136;2023-05-07T12:41:55;19.60;99.90
12568;DHT22;6349;50.904;6.136;2023-05-07T12:43:57;19.50;99.90
12568;DHT22;6349;50.904;6.136;2023-05-07T12:46:07;19.40;99.90
12568;DHT22;6349;50.904;6.136;2023-05-07T12:48:10;19.30;99.90
12568;DHT22;6349;50.904;6.136;2023-05-07T12:50:13;19.20;99.90
12568;DHT22;6349;50.904;6.136;2023-05-07T12:52:15;19.10;99.90
12568;DHT22;6349;50.904;6.136;2023-05-07T12:54:36;19.10;99.90
12568;DHT22;6349;50.904;6.136;2023-05-07T12:56:40;19.00;99.90
12568;DHT22;6349;50.904;6.136;2023-05-07T12:58:42;18.90;99.90
12568;DHT22;6349;50.904;6.136;2023-05-07T13:00:48;18.90;99.90
12568;DHT22;6349;50.904;6.136;2023-05-07T13:02:54;18.90;99.90
12568;DHT22;6349;50.904;6.136;2023-05-07T13:04:56;18.90;99.90
12568;DHT22;6349;50.904;6.136;2023-05-07T13:06:59;18.90;99.90
12568;DHT22;6349;50.904;6.136;2023-05-07T13:09:01;18.90;99.90
12568;DHT22;6349;50.904;6.136;2023-05-07T13:11:04;18.90;99.90
12568;DHT22;6349;50.904;6.136;2023-05-07T13:13:06;19.00;99.90